Погода Эль-Рефугиона 2 недели

Халиско, Мексика

24 февраля-08 марта
  • 24февраля
    Сегодня
    +12°
    +32°
    Небольшая облачность
    ВремяПогодаТемператураВлажностьДавлениеВетер, м/сВероятность осадков
    00:00Ясно и безоблачно+16°C41 %655 мм0.8 м/с2 %
    03:00Практически безоблачно+15°C40 %654 мм0.4 м/с2 %
    06:00Практически безоблачно+11°C55 %653 мм1.0 м/с2 %
    09:00Небольшая облачность+15°C50 %656 мм0.2 м/с2 %
    12:00Небольшая облачность+27°C21 %659 мм0.3 м/с2 %
    15:00Небольшая облачность+32°C13 %658 мм1.1 м/с2 %
    18:00Облачно с прояснениями+30°C20 %656 мм1.3 м/с2 %
    21:00Облачно с прояснениями+19°C39 %656 мм0.9 м/с2 %
  • 25февраля
    Воскресенье
    +11°
    +32°
    Ясно и безоблачно
    ВремяПогодаТемператураВлажностьДавлениеВетер, м/сВероятность осадков
    00:00Практически безоблачно+17°C54 %657 мм1.0 м/с2 %
    03:00Небольшая облачность+15°C59 %656 мм0.8 м/с2 %
    06:00Ясно и безоблачно+13°C63 %655 мм0.7 м/с2 %
    09:00Ясно и безоблачно+17°C55 %658 мм0.3 м/с2 %
    12:00Ясно и безоблачно+27°C25 %660 мм0.8 м/с2 %
    15:00Ясно и безоблачно+32°C15 %658 мм1.2 м/с2 %
    18:00Ясно и безоблачно+29°C28 %657 мм1.4 м/с2 %
    21:00Ясно и безоблачно+19°C38 %656 мм1.1 м/с2 %
  • 26февраля
    Понедельник
    +11°
    +33°
    Ясно и безоблачно
    ВремяПогодаТемператураВлажностьДавлениеВетер, м/сВероятность осадков
    00:00Ясно и безоблачно+16°C59 %657 мм0.6 м/с2 %
    03:00Ясно и безоблачно+14°C72 %656 мм0.8 м/с2 %
    06:00Ясно и безоблачно+13°C77 %656 мм0.6 м/с2 %
    09:00Ясно и безоблачно+16°C62 %658 мм0.3 м/с2 %
    12:00Ясно и безоблачно+27°C28 %660 мм0.5 м/с2 %
    15:00Ясно и безоблачно+32°C16 %658 мм0.9 м/с2 %
    18:00Практически безоблачно+30°C25 %656 мм1.6 м/с2 %
    21:00Небольшая облачность+19°C50 %656 мм1.7 м/с2 %
  • 27февраля
    Вторник
    +11°
    +32°
    Ясно и безоблачно
    ВремяПогодаТемператураВлажностьДавлениеВетер, м/сВероятность осадков
    00:00Практически безоблачно+16°C82 %656 мм1.1 м/с2 %
    03:00Ясно и безоблачно+14°C89 %655 мм0.5 м/с2 %
    06:00Практически безоблачно+12°C90 %655 мм0.8 м/с2 %
    09:00Ясно и безоблачно+16°C67 %657 мм0.4 м/с2 %
    12:00Ясно и безоблачно+26°C29 %659 мм0.7 м/с2 %
    15:00Ясно и безоблачно+31°C18 %657 мм1.6 м/с2 %
    18:00Ясно и безоблачно+30°C17 %656 мм2.7 м/с2 %
    21:00Ясно и безоблачно+21°C34 %655 мм1.3 м/с2 %
  • 28февраля
    Среда
    +12°
    +32°
    Небольшая облачность
    ВремяПогодаТемператураВлажностьДавлениеВетер, м/сВероятность осадков
    00:00Ясно и безоблачно+16°C55 %655 мм0.7 м/с2 %
    03:00Ясно и безоблачно+13°C67 %654 мм0.7 м/с2 %
    06:00Ясно и безоблачно+12°C69 %654 мм0.7 м/с2 %
    09:00Практически безоблачно+16°C52 %656 мм0.6 м/с2 %
    12:00Практически безоблачно+26°C17 %658 мм0.6 м/с2 %
    15:00Небольшая облачность+31°C9 %657 мм0.9 м/с2 %
    18:00Практически безоблачно+29°C16 %655 мм1.5 м/с2 %
    21:00Небольшая облачность+19°C36 %655 мм0.7 м/с2 %
Мы используем cookies
Соглашаюсь